sensor_id;sensor_type;location;lat;lon;timestamp;P1;durP1;ratioP1;P2;durP2;ratioP2
65289;SDS011;51893;59.754;10.110;2024-02-16T00:02:03;1.60;;;1.40;;
65289;SDS011;51893;59.754;10.110;2024-02-16T00:04:32;1.30;;;1.20;;
65289;SDS011;51893;59.754;10.110;2024-02-16T00:07:00;1.30;;;1.20;;
65289;SDS011;51893;59.754;10.110;2024-02-16T00:09:28;1.20;;;1.00;;
65289;SDS011;51893;59.754;10.110;2024-02-16T00:11:57;0.90;;;0.90;;
65289;SDS011;51893;59.754;10.110;2024-02-16T00:14:26;1.50;;;1.20;;
65289;SDS011;51893;59.754;10.110;2024-02-16T00:16:54;1.00;;;1.00;;
65289;SDS011;51893;59.754;10.110;2024-02-16T00:19:22;1.30;;;1.10;;
65289;SDS011;51893;59.754;10.110;2024-02-16T00:21:51;1.10;;;1.00;;
65289;SDS011;51893;59.754;10.110;2024-02-16T00:24:22;1.20;;;0.90;;
65289;SDS011;51893;59.754;10.110;2024-02-16T00:26:50;0.80;;;0.80;;
65289;SDS011;51893;59.754;10.110;2024-02-16T00:29:19;1.80;;;1.00;;
65289;SDS011;51893;59.754;10.110;2024-02-16T00:31:47;1.10;;;1.10;;
65289;SDS011;51893;59.754;10.110;2024-02-16T00:34:15;1.20;;;1.10;;
65289;SDS011;51893;59.754;10.110;2024-02-16T00:36:44;0.80;;;0.80;;
65289;SDS011;51893;59.754;10.110;2024-02-16T00:39:12;3.00;;;1.30;;
65289;SDS011;51893;59.754;10.110;2024-02-16T00:41:40;1.30;;;1.20;;
65289;SDS011;51893;59.754;10.110;2024-02-16T00:44:08;0.90;;;0.90;;
65289;SDS011;51893;59.754;10.110;2024-02-16T00:46:36;1.40;;;0.90;;
65289;SDS011;51893;59.754;10.110;2024-02-16T00:49:05;0.90;;;0.90;;
65289;SDS011;51893;59.754;10.110;2024-02-16T00:51:33;1.20;;;1.10;;
65289;SDS011;51893;59.754;10.110;2024-02-16T00:54:03;1.00;;;1.00;;
65289;SDS011;51893;59.754;10.110;2024-02-16T00:56:35;1.60;;;1.10;;
65289;SDS011;51893;59.754;10.110;2024-02-16T00:59:03;1.00;;;0.90;;
65289;SDS011;51893;59.754;10.110;2024-02-16T01:01:32;1.30;;;1.20;;
65289;SDS011;51893;59.754;10.110;2024-02-16T01:04:02;1.20;;;1.10;;
65289;SDS011;51893;59.754;10.110;2024-02-16T01:06:30;1.20;;;1.10;;
65289;SDS011;51893;59.754;10.110;2024-02-16T01:08:58;1.10;;;1.10;;
65289;SDS011;51893;59.754;10.110;2024-02-16T01:11:27;1.70;;;1.50;;
65289;SDS011;51893;59.754;10.110;2024-02-16T01:13:56;0.70;;;0.70;;
65289;SDS011;51893;59.754;10.110;2024-02-16T01:16:24;0.90;;;0.90;;
65289;SDS011;51893;59.754;10.110;2024-02-16T01:18:52;1.10;;;1.00;;
65289;SDS011;51893;59.754;10.110;2024-02-16T01:21:20;0.90;;;0.90;;
65289;SDS011;51893;59.754;10.110;2024-02-16T01:23:49;1.50;;;1.20;;
65289;SDS011;51893;59.754;10.110;2024-02-16T01:26:17;1.00;;;1.00;;
65289;SDS011;51893;59.754;10.110;2024-02-16T01:28:46;1.00;;;0.90;;
65289;SDS011;51893;59.754;10.110;2024-02-16T01:31:14;1.00;;;1.00;;
65289;SDS011;51893;59.754;10.110;2024-02-16T01:33:42;0.90;;;0.90;;
65289;SDS011;51893;59.754;10.110;2024-02-16T01:36:10;1.00;;;1.00;;
65289;SDS011;51893;59.754;10.110;2024-02-16T01:38:38;0.70;;;0.70;;
65289;SDS011;51893;59.754;10.110;2024-02-16T01:41:06;0.90;;;0.90;;
65289;SDS011;51893;59.754;10.110;2024-02-16T01:43:36;1.00;;;0.90;;
65289;SDS011;51893;59.754;10.110;2024-02-16T01:46:04;1.10;;;1.10;;
65289;SDS011;51893;59.754;10.110;2024-02-16T01:48:33;1.00;;;1.00;;
65289;SDS011;51893;59.754;10.110;2024-02-16T01:51:03;1.00;;;1.00;;
65289;SDS011;51893;59.754;10.110;2024-02-16T01:53:35;1.00;;;1.00;;
65289;SDS011;51893;59.754;10.110;2024-02-16T01:56:05;1.00;;;1.00;;
65289;SDS011;51893;59.754;10.110;2024-02-16T01:58:34;0.70;;;0.70;;
65289;SDS011;51893;59.754;10.110;2024-02-16T02:01:02;0.80;;;0.80;;
65289;SDS011;51893;59.754;10.110;2024-02-16T02:03:31;1.70;;;1.00;;
65289;SDS011;51893;59.754;10.110;2024-02-16T02:05:59;1.60;;;0.90;;
65289;SDS011;51893;59.754;10.110;2024-02-16T02:08:27;1.60;;;1.10;;
65289;SDS011;51893;59.754;10.110;2024-02-16T02:10:55;1.10;;;1.00;;
65289;SDS011;51893;59.754;10.110;2024-02-16T02:13:23;0.60;;;0.60;;
65289;SDS011;51893;59.754;10.110;2024-02-16T02:15:53;1.00;;;1.00;;
65289;SDS011;51893;59.754;10.110;2024-02-16T02:18:23;1.30;;;1.20;;
65289;SDS011;51893;59.754;10.110;2024-02-16T02:20:51;0.80;;;0.80;;
65289;SDS011;51893;59.754;10.110;2024-02-16T02:23:21;1.00;;;0.80;;
65289;SDS011;51893;59.754;10.110;2024-02-16T02:25:49;0.60;;;0.60;;
65289;SDS011;51893;59.754;10.110;2024-02-16T02:28:18;0.80;;;0.80;;
65289;SDS011;51893;59.754;10.110;2024-02-16T02:30:46;0.80;;;0.80;;
65289;SDS011;51893;59.754;10.110;2024-02-16T02:33:14;0.80;;;0.80;;
65289;SDS011;51893;59.754;10.110;2024-02-16T02:35:43;0.90;;;0.70;;
65289;SDS011;51893;59.754;10.110;2024-02-16T02:38:11;0.60;;;0.60;;
65289;SDS011;51893;59.754;10.110;2024-02-16T02:40:40;1.00;;;1.00;;
65289;SDS011;51893;59.754;10.110;2024-02-16T02:43:08;0.70;;;0.70;;
65289;SDS011;51893;59.754;10.110;2024-02-16T02:45:36;0.80;;;0.80;;
65289;SDS011;51893;59.754;10.110;2024-02-16T02:48:05;0.90;;;0.90;;
65289;SDS011;51893;59.754;10.110;2024-02-16T02:50:34;1.40;;;0.80;;
65289;SDS011;51893;59.754;10.110;2024-02-16T02:53:02;1.10;;;1.10;;
65289;SDS011;51893;59.754;10.110;2024-02-16T02:55:30;0.70;;;0.70;;
65289;SDS011;51893;59.754;10.110;2024-02-16T02:57:58;0.90;;;0.90;;
65289;SDS011;51893;59.754;10.110;2024-02-16T03:00:26;1.00;;;0.90;;
65289;SDS011;51893;59.754;10.110;2024-02-16T03:02:54;0.70;;;0.70;;
65289;SDS011;51893;59.754;10.110;2024-02-16T03:05:23;0.90;;;0.90;;
65289;SDS011;51893;59.754;10.110;2024-02-16T03:07:51;1.00;;;1.00;;
65289;SDS011;51893;59.754;10.110;2024-02-16T03:10:20;1.10;;;1.10;;
65289;SDS011;51893;59.754;10.110;2024-02-16T03:12:49;0.90;;;0.90;;
65289;SDS011;51893;59.754;10.110;2024-02-16T03:15:18;1.80;;;1.30;;
65289;SDS011;51893;59.754;10.110;2024-02-16T03:17:46;0.80;;;0.80;;
65289;SDS011;51893;59.754;10.110;2024-02-16T03:20:15;1.00;;;1.00;;
65289;SDS011;51893;59.754;10.110;2024-02-16T03:22:44;1.00;;;1.00;;
65289;SDS011;51893;59.754;10.110;2024-02-16T03:25:12;0.90;;;0.90;;
65289;SDS011;51893;59.754;10.110;2024-02-16T03:27:42;3.10;;;0.80;;
65289;SDS011;51893;59.754;10.110;2024-02-16T03:30:11;1.00;;;1.00;;
65289;SDS011;51893;59.754;10.110;2024-02-16T03:32:39;0.80;;;0.80;;
65289;SDS011;51893;59.754;10.110;2024-02-16T03:35:08;1.00;;;1.00;;
65289;SDS011;51893;59.754;10.110;2024-02-16T03:37:36;0.90;;;0.90;;
65289;SDS011;51893;59.754;10.110;2024-02-16T03:40:05;0.90;;;0.90;;
65289;SDS011;51893;59.754;10.110;2024-02-16T03:42:34;0.60;;;0.60;;
65289;SDS011;51893;59.754;10.110;2024-02-16T03:45:03;0.70;;;0.70;;
65289;SDS011;51893;59.754;10.110;2024-02-16T03:47:32;0.80;;;0.80;;
65289;SDS011;51893;59.754;10.110;2024-02-16T03:50:00;0.80;;;0.80;;
65289;SDS011;51893;59.754;10.110;2024-02-16T03:52:28;1.40;;;0.80;;
65289;SDS011;51893;59.754;10.110;2024-02-16T03:54:56;1.90;;;1.80;;
65289;SDS011;51893;59.754;10.110;2024-02-16T03:57:24;1.20;;;1.20;;
65289;SDS011;51893;59.754;10.110;2024-02-16T03:59:53;0.90;;;0.90;;
65289;SDS011;51893;59.754;10.110;2024-02-16T04:02:22;1.60;;;1.00;;
65289;SDS011;51893;59.754;10.110;2024-02-16T04:04:50;0.70;;;0.70;;
65289;SDS011;51893;59.754;10.110;2024-02-16T04:07:18;1.20;;;1.10;;
65289;SDS011;51893;59.754;10.110;2024-02-16T04:09:47;0.70;;;0.70;;
65289;SDS011;51893;59.754;10.110;2024-02-16T04:12:15;0.90;;;0.90;;
65289;SDS011;51893;59.754;10.110;2024-02-16T04:14:44;0.60;;;0.60;;
65289;SDS011;51893;59.754;10.110;2024-02-16T04:17:11;0.80;;;0.80;;
65289;SDS011;51893;59.754;10.110;2024-02-16T04:19:39;0.90;;;0.90;;
65289;SDS011;51893;59.754;10.110;2024-02-16T04:22:08;1.40;;;0.80;;
65289;SDS011;51893;59.754;10.110;2024-02-16T04:24:36;0.60;;;0.60;;
65289;SDS011;51893;59.754;10.110;2024-02-16T04:27:04;0.60;;;0.60;;
65289;SDS011;51893;59.754;10.110;2024-02-16T04:29:36;0.70;;;0.70;;
65289;SDS011;51893;59.754;10.110;2024-02-16T04:32:04;0.50;;;0.50;;
65289;SDS011;51893;59.754;10.110;2024-02-16T04:34:32;0.70;;;0.70;;
65289;SDS011;51893;59.754;10.110;2024-02-16T04:37:01;0.80;;;0.80;;
65289;SDS011;51893;59.754;10.110;2024-02-16T04:39:31;0.60;;;0.60;;
65289;SDS011;51893;59.754;10.110;2024-02-16T04:41:59;0.60;;;0.60;;
65289;SDS011;51893;59.754;10.110;2024-02-16T04:44:27;0.70;;;0.70;;
65289;SDS011;51893;59.754;10.110;2024-02-16T04:46:56;0.60;;;0.60;;
65289;SDS011;51893;59.754;10.110;2024-02-16T04:49:24;1.20;;;1.10;;
65289;SDS011;51893;59.754;10.110;2024-02-16T04:51:52;0.90;;;0.90;;
65289;SDS011;51893;59.754;10.110;2024-02-16T04:54:21;0.80;;;0.80;;
65289;SDS011;51893;59.754;10.110;2024-02-16T04:56:51;0.90;;;0.90;;
65289;SDS011;51893;59.754;10.110;2024-02-16T04:59:19;1.00;;;1.00;;
65289;SDS011;51893;59.754;10.110;2024-02-16T05:01:47;0.80;;;0.80;;
65289;SDS011;51893;59.754;10.110;2024-02-16T05:04:15;0.60;;;0.60;;
65289;SDS011;51893;59.754;10.110;2024-02-16T05:06:45;0.90;;;0.90;;
65289;SDS011;51893;59.754;10.110;2024-02-16T05:09:14;0.50;;;0.50;;
65289;SDS011;51893;59.754;10.110;2024-02-16T05:11:45;0.60;;;0.60;;
65289;SDS011;51893;59.754;10.110;2024-02-16T05:14:13;0.70;;;0.70;;
65289;SDS011;51893;59.754;10.110;2024-02-16T05:16:44;0.90;;;0.70;;
65289;SDS011;51893;59.754;10.110;2024-02-16T05:19:13;1.20;;;0.80;;
65289;SDS011;51893;59.754;10.110;2024-02-16T05:21:42;0.70;;;0.70;;
65289;SDS011;51893;59.754;10.110;2024-02-16T05:24:12;0.80;;;0.80;;
65289;SDS011;51893;59.754;10.110;2024-02-16T05:26:40;0.80;;;0.80;;
65289;SDS011;51893;59.754;10.110;2024-02-16T05:29:09;0.80;;;0.80;;
65289;SDS011;51893;59.754;10.110;2024-02-16T05:31:37;1.00;;;1.00;;
65289;SDS011;51893;59.754;10.110;2024-02-16T05:34:05;5.50;;;1.70;;
65289;SDS011;51893;59.754;10.110;2024-02-16T05:36:33;2.30;;;1.00;;
65289;SDS011;51893;59.754;10.110;2024-02-16T05:39:04;2.20;;;1.20;;
65289;SDS011;51893;59.754;10.110;2024-02-16T05:41:49;1.00;;;0.80;;
65289;SDS011;51893;59.754;10.110;2024-02-16T05:44:17;1.00;;;1.00;;
65289;SDS011;51893;59.754;10.110;2024-02-16T05:46:46;1.00;;;1.00;;
65289;SDS011;51893;59.754;10.110;2024-02-16T05:49:14;0.70;;;0.70;;
65289;SDS011;51893;59.754;10.110;2024-02-16T05:51:44;0.60;;;0.60;;
65289;SDS011;51893;59.754;10.110;2024-02-16T05:54:32;0.70;;;0.70;;
65289;SDS011;51893;59.754;10.110;2024-02-16T05:57:05;0.70;;;0.70;;
65289;SDS011;51893;59.754;10.110;2024-02-16T05:59:36;0.70;;;0.70;;
65289;SDS011;51893;59.754;10.110;2024-02-16T06:02:06;0.60;;;0.60;;
65289;SDS011;51893;59.754;10.110;2024-02-16T06:04:34;1.00;;;1.00;;
65289;SDS011;51893;59.754;10.110;2024-02-16T06:07:03;1.00;;;0.80;;
65289;SDS011;51893;59.754;10.110;2024-02-16T06:09:31;1.20;;;1.10;;
65289;SDS011;51893;59.754;10.110;2024-02-16T06:12:04;1.00;;;1.00;;
65289;SDS011;51893;59.754;10.110;2024-02-16T06:14:35;3.00;;;1.10;;
65289;SDS011;51893;59.754;10.110;2024-02-16T06:17:04;0.90;;;0.90;;
65289;SDS011;51893;59.754;10.110;2024-02-16T06:19:32;1.50;;;1.40;;
65289;SDS011;51893;59.754;10.110;2024-02-16T06:22:01;1.80;;;1.20;;
65289;SDS011;51893;59.754;10.110;2024-02-16T06:24:29;1.20;;;1.10;;
65289;SDS011;51893;59.754;10.110;2024-02-16T06:26:57;1.90;;;1.80;;
65289;SDS011;51893;59.754;10.110;2024-02-16T06:29:26;2.40;;;2.00;;
65289;SDS011;51893;59.754;10.110;2024-02-16T06:31:54;1.90;;;1.70;;
65289;SDS011;51893;59.754;10.110;2024-02-16T06:34:21;1.70;;;1.60;;
65289;SDS011;51893;59.754;10.110;2024-02-16T06:36:50;1.70;;;1.60;;
65289;SDS011;51893;59.754;10.110;2024-02-16T06:39:19;1.40;;;1.20;;
65289;SDS011;51893;59.754;10.110;2024-02-16T06:41:48;4.90;;;1.20;;
65289;SDS011;51893;59.754;10.110;2024-02-16T06:44:19;0.70;;;0.70;;
65289;SDS011;51893;59.754;10.110;2024-02-16T06:46:51;1.10;;;1.00;;
65289;SDS011;51893;59.754;10.110;2024-02-16T06:49:19;1.00;;;1.00;;
65289;SDS011;51893;59.754;10.110;2024-02-16T06:51:47;1.00;;;1.00;;
65289;SDS011;51893;59.754;10.110;2024-02-16T06:54:15;0.90;;;0.90;;
65289;SDS011;51893;59.754;10.110;2024-02-16T06:56:43;1.00;;;1.00;;
65289;SDS011;51893;59.754;10.110;2024-02-16T06:59:11;1.30;;;1.20;;
65289;SDS011;51893;59.754;10.110;2024-02-16T07:01:40;1.30;;;1.00;;
65289;SDS011;51893;59.754;10.110;2024-02-16T07:04:08;1.10;;;1.00;;
65289;SDS011;51893;59.754;10.110;2024-02-16T07:06:37;1.10;;;0.90;;
65289;SDS011;51893;59.754;10.110;2024-02-16T07:09:06;1.00;;;1.00;;
65289;SDS011;51893;59.754;10.110;2024-02-16T07:11:34;1.70;;;1.60;;
65289;SDS011;51893;59.754;10.110;2024-02-16T07:14:04;1.90;;;1.50;;
65289;SDS011;51893;59.754;10.110;2024-02-16T07:16:35;1.50;;;1.40;;
65289;SDS011;51893;59.754;10.110;2024-02-16T07:19:04;1.20;;;1.20;;
65289;SDS011;51893;59.754;10.110;2024-02-16T07:21:33;1.90;;;1.40;;
65289;SDS011;51893;59.754;10.110;2024-02-16T07:24:01;1.30;;;1.20;;
65289;SDS011;51893;59.754;10.110;2024-02-16T07:26:30;0.80;;;0.80;;
65289;SDS011;51893;59.754;10.110;2024-02-16T07:28:58;1.50;;;1.40;;
65289;SDS011;51893;59.754;10.110;2024-02-16T07:31:32;0.80;;;0.80;;
65289;SDS011;51893;59.754;10.110;2024-02-16T07:34:02;0.80;;;0.80;;
65289;SDS011;51893;59.754;10.110;2024-02-16T07:36:34;1.20;;;1.00;;
65289;SDS011;51893;59.754;10.110;2024-02-16T07:39:02;1.30;;;1.20;;
65289;SDS011;51893;59.754;10.110;2024-02-16T07:41:32;1.60;;;1.10;;
65289;SDS011;51893;59.754;10.110;2024-02-16T07:44:00;1.10;;;1.10;;
65289;SDS011;51893;59.754;10.110;2024-02-16T07:46:28;1.20;;;1.20;;
65289;SDS011;51893;59.754;10.110;2024-02-16T07:48:59;1.00;;;1.00;;
65289;SDS011;51893;59.754;10.110;2024-02-16T07:51:28;1.30;;;1.20;;
65289;SDS011;51893;59.754;10.110;2024-02-16T07:53:56;1.30;;;1.00;;
65289;SDS011;51893;59.754;10.110;2024-02-16T07:56:24;1.90;;;1.30;;
65289;SDS011;51893;59.754;10.110;2024-02-16T07:58:52;1.30;;;1.20;;
65289;SDS011;51893;59.754;10.110;2024-02-16T08:01:20;1.30;;;1.20;;
65289;SDS011;51893;59.754;10.110;2024-02-16T08:03:49;1.80;;;1.60;;
65289;SDS011;51893;59.754;10.110;2024-02-16T08:06:17;2.00;;;1.60;;
65289;SDS011;51893;59.754;10.110;2024-02-16T08:08:48;1.60;;;1.50;;
65289;SDS011;51893;59.754;10.110;2024-02-16T08:11:16;1.60;;;1.50;;
65289;SDS011;51893;59.754;10.110;2024-02-16T08:13:45;1.50;;;1.40;;
65289;SDS011;51893;59.754;10.110;2024-02-16T08:16:13;3.30;;;1.80;;
65289;SDS011;51893;59.754;10.110;2024-02-16T08:18:43;1.80;;;1.60;;
65289;SDS011;51893;59.754;10.110;2024-02-16T08:21:13;3.50;;;1.70;;
65289;SDS011;51893;59.754;10.110;2024-02-16T08:23:41;3.40;;;2.00;;
65289;SDS011;51893;59.754;10.110;2024-02-16T08:26:09;1.90;;;1.80;;
65289;SDS011;51893;59.754;10.110;2024-02-16T08:28:37;3.40;;;1.80;;
65289;SDS011;51893;59.754;10.110;2024-02-16T08:31:08;4.30;;;2.10;;
65289;SDS011;51893;59.754;10.110;2024-02-16T08:33:36;3.70;;;1.90;;
65289;SDS011;51893;59.754;10.110;2024-02-16T08:36:07;2.00;;;1.80;;
65289;SDS011;51893;59.754;10.110;2024-02-16T08:38:36;1.70;;;1.60;;
65289;SDS011;51893;59.754;10.110;2024-02-16T08:41:05;1.70;;;1.60;;
65289;SDS011;51893;59.754;10.110;2024-02-16T08:43:33;3.40;;;1.20;;
65289;SDS011;51893;59.754;10.110;2024-02-16T08:46:01;2.00;;;1.50;;
65289;SDS011;51893;59.754;10.110;2024-02-16T08:48:29;1.40;;;1.30;;
65289;SDS011;51893;59.754;10.110;2024-02-16T08:50:58;1.60;;;1.50;;
65289;SDS011;51893;59.754;10.110;2024-02-16T08:53:26;1.90;;;1.50;;
65289;SDS011;51893;59.754;10.110;2024-02-16T08:55:53;2.30;;;1.50;;
65289;SDS011;51893;59.754;10.110;2024-02-16T08:58:22;1.50;;;1.40;;
65289;SDS011;51893;59.754;10.110;2024-02-16T09:00:50;2.80;;;1.50;;
65289;SDS011;51893;59.754;10.110;2024-02-16T09:03:19;3.20;;;1.50;;
65289;SDS011;51893;59.754;10.110;2024-02-16T09:05:48;1.70;;;1.60;;
65289;SDS011;51893;59.754;10.110;2024-02-16T09:08:16;1.50;;;1.40;;
65289;SDS011;51893;59.754;10.110;2024-02-16T09:10:44;1.70;;;1.60;;
65289;SDS011;51893;59.754;10.110;2024-02-16T09:13:13;2.00;;;1.40;;
65289;SDS011;51893;59.754;10.110;2024-02-16T09:15:41;1.50;;;1.40;;
65289;SDS011;51893;59.754;10.110;2024-02-16T09:18:09;1.40;;;1.30;;
65289;SDS011;51893;59.754;10.110;2024-02-16T09:20:37;2.00;;;1.80;;
65289;SDS011;51893;59.754;10.110;2024-02-16T09:23:05;2.70;;;1.90;;
65289;SDS011;51893;59.754;10.110;2024-02-16T09:25:34;4.10;;;1.80;;
65289;SDS011;51893;59.754;10.110;2024-02-16T09:28:03;2.10;;;1.90;;
65289;SDS011;51893;59.754;10.110;2024-02-16T09:30:33;1.70;;;1.30;;
65289;SDS011;51893;59.754;10.110;2024-02-16T09:33:01;3.40;;;2.00;;
65289;SDS011;51893;59.754;10.110;2024-02-16T09:35:30;2.00;;;1.50;;
65289;SDS011;51893;59.754;10.110;2024-02-16T09:37:58;1.90;;;1.70;;
65289;SDS011;51893;59.754;10.110;2024-02-16T09:40:27;1.70;;;1.60;;
65289;SDS011;51893;59.754;10.110;2024-02-16T09:42:55;1.80;;;1.20;;
65289;SDS011;51893;59.754;10.110;2024-02-16T09:45:24;2.00;;;1.70;;
65289;SDS011;51893;59.754;10.110;2024-02-16T09:47:55;2.00;;;1.50;;
65289;SDS011;51893;59.754;10.110;2024-02-16T09:50:33;2.90;;;2.00;;
65289;SDS011;51893;59.754;10.110;2024-02-16T09:53:03;3.20;;;1.90;;
65289;SDS011;51893;59.754;10.110;2024-02-16T09:55:34;2.10;;;2.00;;
65289;SDS011;51893;59.754;10.110;2024-02-16T09:58:03;1.80;;;1.70;;
65289;SDS011;51893;59.754;10.110;2024-02-16T10:00:32;1.60;;;1.50;;
65289;SDS011;51893;59.754;10.110;2024-02-16T10:03:01;2.10;;;1.80;;
65289;SDS011;51893;59.754;10.110;2024-02-16T10:05:29;2.10;;;1.70;;
65289;SDS011;51893;59.754;10.110;2024-02-16T10:07:58;2.20;;;1.70;;
65289;SDS011;51893;59.754;10.110;2024-02-16T10:10:28;1.60;;;1.50;;
65289;SDS011;51893;59.754;10.110;2024-02-16T10:13:05;2.30;;;1.80;;
65289;SDS011;51893;59.754;10.110;2024-02-16T10:15:35;1.90;;;1.60;;
65289;SDS011;51893;59.754;10.110;2024-02-16T10:18:07;1.90;;;1.70;;
65289;SDS011;51893;59.754;10.110;2024-02-16T10:20:38;1.80;;;1.70;;
65289;SDS011;51893;59.754;10.110;2024-02-16T10:23:09;2.70;;;1.80;;
65289;SDS011;51893;59.754;10.110;2024-02-16T10:25:39;2.80;;;1.80;;
65289;SDS011;51893;59.754;10.110;2024-02-16T10:28:11;1.80;;;1.70;;
65289;SDS011;51893;59.754;10.110;2024-02-16T10:30:42;2.50;;;1.60;;
65289;SDS011;51893;59.754;10.110;2024-02-16T10:33:11;0.90;;;0.90;;
65289;SDS011;51893;59.754;10.110;2024-02-16T10:35:43;1.50;;;1.40;;
65289;SDS011;51893;59.754;10.110;2024-02-16T10:38:12;2.60;;;1.50;;
65289;SDS011;51893;59.754;10.110;2024-02-16T10:40:47;2.00;;;1.30;;
65289;SDS011;51893;59.754;10.110;2024-02-16T10:43:17;2.00;;;1.40;;
65289;SDS011;51893;59.754;10.110;2024-02-16T10:45:47;1.80;;;1.70;;
65289;SDS011;51893;59.754;10.110;2024-02-16T10:48:20;1.10;;;1.10;;
65289;SDS011;51893;59.754;10.110;2024-02-16T10:50:49;1.60;;;1.50;;
65289;SDS011;51893;59.754;10.110;2024-02-16T10:53:27;2.00;;;1.60;;
65289;SDS011;51893;59.754;10.110;2024-02-16T10:55:58;1.40;;;1.30;;
65289;SDS011;51893;59.754;10.110;2024-02-16T10:58:27;1.80;;;1.30;;
65289;SDS011;51893;59.754;10.110;2024-02-16T11:00:57;1.50;;;1.40;;
65289;SDS011;51893;59.754;10.110;2024-02-16T11:03:38;4.10;;;2.00;;
65289;SDS011;51893;59.754;10.110;2024-02-16T11:06:15;1.40;;;1.40;;
65289;SDS011;51893;59.754;10.110;2024-02-16T11:08:48;2.20;;;1.70;;
65289;SDS011;51893;59.754;10.110;2024-02-16T11:11:25;3.20;;;1.90;;
65289;SDS011;51893;59.754;10.110;2024-02-16T11:13:54;2.10;;;1.90;;
65289;SDS011;51893;59.754;10.110;2024-02-16T11:16:24;3.50;;;1.90;;
65289;SDS011;51893;59.754;10.110;2024-02-16T11:18:54;1.90;;;1.80;;
65289;SDS011;51893;59.754;10.110;2024-02-16T11:21:24;2.90;;;2.10;;
65289;SDS011;51893;59.754;10.110;2024-02-16T11:24:06;1.90;;;1.80;;
65289;SDS011;51893;59.754;10.110;2024-02-16T11:26:42;2.10;;;1.90;;
65289;SDS011;51893;59.754;10.110;2024-02-16T11:29:12;1.60;;;1.50;;
65289;SDS011;51893;59.754;10.110;2024-02-16T11:31:43;4.20;;;2.40;;
65289;SDS011;51893;59.754;10.110;2024-02-16T11:34:21;4.50;;;2.20;;
65289;SDS011;51893;59.754;10.110;2024-02-16T11:36:55;1.90;;;1.70;;
65289;SDS011;51893;59.754;10.110;2024-02-16T11:39:25;1.70;;;1.60;;
65289;SDS011;51893;59.754;10.110;2024-02-16T11:42:05;2.50;;;1.80;;
65289;SDS011;51893;59.754;10.110;2024-02-16T11:44:37;1.50;;;1.40;;
65289;SDS011;51893;59.754;10.110;2024-02-16T11:47:10;2.80;;;2.60;;
65289;SDS011;51893;59.754;10.110;2024-02-16T11:49:44;4.00;;;2.80;;
65289;SDS011;51893;59.754;10.110;2024-02-16T11:52:13;13.60;;;7.10;;
65289;SDS011;51893;59.754;10.110;2024-02-16T11:54:45;3.50;;;2.70;;
65289;SDS011;51893;59.754;10.110;2024-02-16T11:57:13;3.20;;;2.10;;
65289;SDS011;51893;59.754;10.110;2024-02-16T11:59:41;2.00;;;1.50;;
65289;SDS011;51893;59.754;10.110;2024-02-16T12:02:17;7.00;;;3.20;;
65289;SDS011;51893;59.754;10.110;2024-02-16T12:04:59;7.40;;;3.10;;
65289;SDS011;51893;59.754;10.110;2024-02-16T12:07:31;4.90;;;2.60;;
65289;SDS011;51893;59.754;10.110;2024-02-16T12:10:03;3.20;;;2.60;;
65289;SDS011;51893;59.754;10.110;2024-02-16T12:12:40;5.60;;;2.40;;
65289;SDS011;51893;59.754;10.110;2024-02-16T12:15:10;6.60;;;2.00;;
65289;SDS011;51893;59.754;10.110;2024-02-16T12:17:41;3.00;;;1.90;;
65289;SDS011;51893;59.754;10.110;2024-02-16T12:20:13;2.80;;;1.40;;
65289;SDS011;51893;59.754;10.110;2024-02-16T12:22:42;3.10;;;1.40;;
65289;SDS011;51893;59.754;10.110;2024-02-16T12:25:10;1.50;;;1.40;;
65289;SDS011;51893;59.754;10.110;2024-02-16T12:27:40;2.50;;;1.40;;
65289;SDS011;51893;59.754;10.110;2024-02-16T12:30:09;1.90;;;1.70;;
65289;SDS011;51893;59.754;10.110;2024-02-16T12:32:37;1.80;;;1.70;;
65289;SDS011;51893;59.754;10.110;2024-02-16T12:35:06;3.60;;;1.70;;
65289;SDS011;51893;59.754;10.110;2024-02-16T12:37:37;3.20;;;2.10;;
65289;SDS011;51893;59.754;10.110;2024-02-16T12:40:06;3.50;;;2.20;;
65289;SDS011;51893;59.754;10.110;2024-02-16T12:42:35;1.50;;;1.40;;
65289;SDS011;51893;59.754;10.110;2024-02-16T12:45:04;1.80;;;1.40;;
65289;SDS011;51893;59.754;10.110;2024-02-16T12:47:33;4.20;;;2.90;;
65289;SDS011;51893;59.754;10.110;2024-02-16T12:50:01;2.10;;;2.00;;
65289;SDS011;51893;59.754;10.110;2024-02-16T12:52:29;2.10;;;1.80;;
65289;SDS011;51893;59.754;10.110;2024-02-16T12:54:59;4.70;;;2.80;;
65289;SDS011;51893;59.754;10.110;2024-02-16T12:57:27;5.50;;;4.60;;
65289;SDS011;51893;59.754;10.110;2024-02-16T12:59:57;4.90;;;3.50;;
65289;SDS011;51893;59.754;10.110;2024-02-16T13:02:25;6.40;;;3.40;;
65289;SDS011;51893;59.754;10.110;2024-02-16T13:04:55;1.90;;;1.80;;
65289;SDS011;51893;59.754;10.110;2024-02-16T13:07:24;1.40;;;1.30;;
65289;SDS011;51893;59.754;10.110;2024-02-16T13:09:53;1.50;;;1.40;;
65289;SDS011;51893;59.754;10.110;2024-02-16T13:12:22;1.40;;;1.30;;
65289;SDS011;51893;59.754;10.110;2024-02-16T13:14:52;1.50;;;1.40;;
65289;SDS011;51893;59.754;10.110;2024-02-16T13:17:20;1.20;;;1.10;;
65289;SDS011;51893;59.754;10.110;2024-02-16T13:19:48;1.20;;;1.10;;
65289;SDS011;51893;59.754;10.110;2024-02-16T13:22:16;1.20;;;1.20;;
65289;SDS011;51893;59.754;10.110;2024-02-16T13:24:44;1.00;;;1.00;;
65289;SDS011;51893;59.754;10.110;2024-02-16T13:27:13;0.80;;;0.80;;
65289;SDS011;51893;59.754;10.110;2024-02-16T13:29:40;1.40;;;1.30;;
65289;SDS011;51893;59.754;10.110;2024-02-16T13:32:08;6.60;;;1.30;;
65289;SDS011;51893;59.754;10.110;2024-02-16T13:34:36;0.90;;;0.90;;
65289;SDS011;51893;59.754;10.110;2024-02-16T13:37:04;1.60;;;1.50;;
65289;SDS011;51893;59.754;10.110;2024-02-16T13:39:32;1.90;;;1.50;;
65289;SDS011;51893;59.754;10.110;2024-02-16T13:42:01;1.90;;;1.50;;
65289;SDS011;51893;59.754;10.110;2024-02-16T13:44:29;1.80;;;1.70;;
65289;SDS011;51893;59.754;10.110;2024-02-16T13:46:57;2.70;;;2.00;;
65289;SDS011;51893;59.754;10.110;2024-02-16T13:49:25;2.50;;;2.00;;
65289;SDS011;51893;59.754;10.110;2024-02-16T13:51:54;1.30;;;1.20;;
65289;SDS011;51893;59.754;10.110;2024-02-16T13:54:26;2.00;;;1.50;;
65289;SDS011;51893;59.754;10.110;2024-02-16T13:56:57;4.40;;;2.00;;
65289;SDS011;51893;59.754;10.110;2024-02-16T13:59:26;3.20;;;2.40;;
65289;SDS011;51893;59.754;10.110;2024-02-16T14:01:54;7.70;;;3.80;;
65289;SDS011;51893;59.754;10.110;2024-02-16T14:04:23;3.20;;;1.80;;
65289;SDS011;51893;59.754;10.110;2024-02-16T14:06:52;1.80;;;1.70;;
65289;SDS011;51893;59.754;10.110;2024-02-16T14:09:21;1.60;;;1.50;;
65289;SDS011;51893;59.754;10.110;2024-02-16T14:12:00;1.00;;;1.00;;
65289;SDS011;51893;59.754;10.110;2024-02-16T14:14:28;1.70;;;1.10;;
65289;SDS011;51893;59.754;10.110;2024-02-16T14:17:05;1.50;;;1.20;;
65289;SDS011;51893;59.754;10.110;2024-02-16T14:19:33;1.60;;;1.50;;
65289;SDS011;51893;59.754;10.110;2024-02-16T14:22:06;1.60;;;1.50;;
65289;SDS011;51893;59.754;10.110;2024-02-16T14:24:35;0.90;;;0.90;;
65289;SDS011;51893;59.754;10.110;2024-02-16T14:27:03;1.70;;;1.60;;
65289;SDS011;51893;59.754;10.110;2024-02-16T14:29:32;1.50;;;1.40;;
65289;SDS011;51893;59.754;10.110;2024-02-16T14:32:00;1.20;;;1.10;;
65289;SDS011;51893;59.754;10.110;2024-02-16T14:34:29;0.90;;;0.90;;
65289;SDS011;51893;59.754;10.110;2024-02-16T14:36:59;1.40;;;1.30;;
65289;SDS011;51893;59.754;10.110;2024-02-16T14:39:28;1.60;;;1.30;;
65289;SDS011;51893;59.754;10.110;2024-02-16T14:41:56;1.20;;;1.10;;
65289;SDS011;51893;59.754;10.110;2024-02-16T14:44:24;1.40;;;1.30;;
65289;SDS011;51893;59.754;10.110;2024-02-16T14:46:53;1.30;;;1.20;;